ENHS weather

Hokksund Airfield
Buskerud, Norway

Public forecast

Using degrees Celsius for public forecast. Weather courtesy of forecast.io.

METAR (pilot weather report)

Closest report is Oslo, Fornebu Airport, 22.7 nm (42.0 km) ENE. Retrieved 2019/05/25 20:20 UTC (1 minute ago):

ENFB 252020Z AUTO 34014KT 9999NDV OVC054/// 07/03 Q1008 W///S4

TAF (pilot weather forecast)

Closest forecast is Moss Airport, Rygge, 35.3 nm (65.5 km) SE. Retrieved 2019/05/25 18:00 UTC (2 hours ago):

TAF TAF ENRY 251700Z 2518/2618 21008KT 9999 FEW030 SCT070 BECMG 2521/2523 32010KT TEMPO 2520/2524 FEW020CB TEMPO 2608/2610 34015G25KT BECMG 2614/2616 19010KT